< < Back
Terminal Aerodrome Forecast


Current Version              Previous Versions:   1  2  3  4  5  6  7  8  9  

Terminal Aerodrome Forecast

719
FTAK31 PAJN 281738
TAFAHN
TAF
PAHN 281738Z 2818/2918 09010G20KT P6SM VCSH SCT008 OVC040
      TEMPO 2818/2820 5SM -SHRA BR BKN008
     FM282100 11012G22KT P6SM VCSH SCT030 OVC060
     FM290600 09010KT P6SM VCSH BKN015 OVC050
      AMD LTD TO CLD VIS AND WIND=

Latest METAR

860
SAUS70 KWBC 290400
MTRAHN
METAR KAHN 290351Z AUTO 00000KT 10SM CLR 26/22 A2999 RMK AO2 SLP147
T02560222


USA.gov is the U.S. government's official web portal to all federal, state and local government web resources and services.